Mc Gehee, Arkansas
Current Conditions -  °F | °C
As of 11:53 PM on Friday 19 Dec 2014 (Local Time) from KGLH Reporting Station
Overcast Overcast  
Wind Chill:   Ceiling: 6000
Heat Index:   Visibility: 8mi
Dew Point:   Wind: 8mph
Humidity: 82%   Direction: 30°NNE
Pressure: 30.21"   Gusts: NA
Location:  33.7652°N, 91.2745°W
Report Text: KGLH 200553Z AUTO 03007KT 8SM SCT029 OVC060 07/04 A3021 RMK AO2 SLP239 T00720044 10072 20067 400830067 50003
Loading
Personal Weather Stations






























Interactive Weather Map New forecast layout! Learn more

10-Day Weather Forecast

Advertisements
Track Severe Weather on mobile